createdAt,value
2022-11-14T00:00:20.683Z,100206.98
2022-11-14T00:03:10.406Z,100207.10
2022-11-14T00:05:59.348Z,100209.80
2022-11-14T00:08:47.808Z,100209.80
2022-11-14T00:11:36.524Z,100205.50
2022-11-14T00:14:25.033Z,100201.14
2022-11-14T00:17:13.683Z,100202.06
2022-11-14T00:20:02.034Z,100206.31
2022-11-14T00:22:50.580Z,100206.29
2022-11-14T00:25:39.033Z,100201.97
2022-11-14T00:28:28.125Z,100208.81
2022-11-14T00:31:17.089Z,100208.73
2022-11-14T00:34:05.806Z,100221.53
2022-11-14T00:36:54.258Z,100199.82
2022-11-14T00:39:42.931Z,100216.11
2022-11-14T00:42:32.051Z,100214.35
2022-11-14T00:45:20.995Z,100214.25
2022-11-14T00:48:09.387Z,100218.60
2022-11-14T00:50:57.940Z,100227.31
2022-11-14T00:53:46.500Z,100220.36
2022-11-14T00:56:35.222Z,100227.29
2022-11-14T00:59:23.883Z,100230.83
2022-11-14T01:02:12.569Z,100235.20
2022-11-14T01:05:02.385Z,100242.28
2022-11-14T01:07:51.136Z,100243.94
2022-11-14T01:10:40.982Z,100242.26
2022-11-14T01:13:30.918Z,100250.27
2022-11-14T01:16:20.293Z,100248.50
2022-11-14T01:19:09.144Z,100253.61
2022-11-14T01:22:01.651Z,100263.20
2022-11-14T01:24:47.884Z,100263.92
2022-11-14T01:27:36.518Z,100246.71
2022-11-14T01:30:25.405Z,100262.50
2022-11-14T01:33:14.215Z,100271.16
2022-11-14T01:36:02.914Z,100271.93
2022-11-14T01:38:53.142Z,100268.61
2022-11-14T01:41:41.440Z,100276.31
2022-11-14T01:44:40.414Z,100273.84
2022-11-14T01:47:30.422Z,100291.24
2022-11-14T01:50:19.174Z,100295.66
2022-11-14T01:53:07.732Z,100297.36
2022-11-14T01:55:57.912Z,100323.19
2022-11-14T01:58:47.889Z,100304.18
2022-11-14T02:01:37.997Z,100315.52
2022-11-14T02:04:31.697Z,100322.63
2022-11-14T02:07:20.426Z,100314.76
2022-11-14T02:10:10.531Z,100303.58
2022-11-14T02:12:59.255Z,100317.43
2022-11-14T02:15:48.030Z,100352.94
2022-11-14T02:18:36.898Z,100335.66
2022-11-14T02:21:25.464Z,100336.63
2022-11-14T02:24:14.226Z,100339.28
2022-11-14T02:27:03.248Z,100330.67
2022-11-14T02:29:51.665Z,100341.92
2022-11-14T02:33:08.854Z,100337.73
2022-11-14T02:35:31.075Z,100332.55
2022-11-14T02:38:20.171Z,100332.68
2022-11-14T02:41:08.607Z,100338.67
2022-11-14T02:43:57.368Z,100353.33
2022-11-14T02:46:46.316Z,100337.84
2022-11-14T02:49:35.210Z,100349.01
2022-11-14T02:52:23.891Z,100346.53
2022-11-14T02:55:12.583Z,100351.58
2022-11-14T02:58:01.339Z,100343.02
2022-11-14T03:01:18.472Z,100347.36
2022-11-14T03:03:40.688Z,100350.90
2022-11-14T03:06:29.386Z,100366.31
2022-11-14T03:09:18.379Z,100357.77
2022-11-14T03:12:06.899Z,100354.21
2022-11-14T03:14:55.375Z,100361.22
2022-11-14T03:17:43.998Z,100373.40
2022-11-14T03:20:32.594Z,100362.93
2022-11-14T03:23:21.226Z,100394.92
2022-11-14T03:26:10.434Z,100382.86
2022-11-14T03:28:59.354Z,100364.86
2022-11-14T03:31:48.454Z,100365.67
2022-11-14T03:34:36.917Z,100389.00
2022-11-14T03:37:25.999Z,100387.16
2022-11-14T03:40:14.925Z,100391.45
2022-11-14T03:43:04.315Z,100378.57
2022-11-14T03:45:53.187Z,100388.12
2022-11-14T03:48:41.700Z,100387.31
2022-11-14T03:51:30.237Z,100396.78
2022-11-14T03:54:18.780Z,100401.05
2022-11-14T03:57:07.567Z,100417.48
2022-11-14T03:59:56.320Z,100392.53
2022-11-14T04:02:44.939Z,100400.28
2022-11-14T04:05:33.367Z,100394.19
2022-11-14T04:08:21.807Z,100410.66
2022-11-14T04:11:10.249Z,100401.97
2022-11-14T04:13:59.003Z,100402.06
2022-11-14T04:16:47.680Z,100406.37
2022-11-14T04:19:36.598Z,100406.36
2022-11-14T04:22:25.733Z,100409.05
2022-11-14T04:25:14.427Z,100415.09
2022-11-14T04:28:03.413Z,100421.28
2022-11-14T04:30:52.151Z,100421.31
2022-11-14T04:33:40.549Z,100438.52
2022-11-14T04:36:29.036Z,100423.77
2022-11-14T04:39:18.466Z,100431.73
2022-11-14T04:42:07.126Z,100443.04
2022-11-14T04:44:56.186Z,100444.73
2022-11-14T04:47:44.875Z,100439.56
2022-11-14T04:50:33.859Z,100449.02
2022-11-14T04:53:22.421Z,100449.04
2022-11-14T04:56:11.350Z,100448.22
2022-11-14T04:59:00.206Z,100450.84
2022-11-14T05:01:49.450Z,100461.38
2022-11-14T05:04:37.988Z,100465.66
2022-11-14T05:07:26.784Z,100466.55
2022-11-14T05:10:15.420Z,100456.22
2022-11-14T05:13:04.617Z,100469.16
2022-11-14T05:15:53.297Z,100483.02
2022-11-14T05:18:46.820Z,100485.70
2022-11-14T05:21:32.535Z,100493.46
2022-11-14T05:24:21.767Z,100488.30
2022-11-14T05:27:10.806Z,100509.02
2022-11-14T05:29:59.617Z,100509.89
2022-11-14T05:32:48.768Z,100518.57
2022-11-14T05:35:38.081Z,100527.14
2022-11-14T05:38:26.907Z,100525.42
2022-11-14T05:41:17.277Z,100518.35
2022-11-14T05:44:06.582Z,100543.20
2022-11-14T05:46:55.521Z,100548.45
2022-11-14T05:49:44.720Z,100539.11
2022-11-14T05:52:33.464Z,100534.92
2022-11-14T05:55:25.130Z,100557.48
2022-11-14T05:58:13.429Z,100548.01
2022-11-14T06:01:09.615Z,100553.30
2022-11-14T06:03:58.366Z,100555.90
2022-11-14T06:06:47.061Z,100557.61
2022-11-14T06:09:35.936Z,100569.67
2022-11-14T06:12:24.662Z,100564.44
2022-11-14T06:15:14.928Z,100587.78
2022-11-14T06:18:04.138Z,100583.43
2022-11-14T06:20:52.868Z,100578.25
2022-11-14T06:23:41.814Z,100574.83
2022-11-14T06:26:31.181Z,100596.37
2022-11-14T06:29:19.899Z,100603.31
2022-11-14T06:32:08.602Z,100592.91
2022-11-14T06:34:57.328Z,100608.48
2022-11-14T06:37:46.023Z,100609.31
2022-11-14T06:40:34.577Z,100604.14
2022-11-14T06:43:23.162Z,100605.02
2022-11-14T06:46:13.801Z,100610.19
2022-11-14T06:49:02.730Z,100618.73
2022-11-14T06:51:52.196Z,100612.72
2022-11-14T06:54:40.975Z,100612.61
2022-11-14T06:57:30.161Z,100615.17
2022-11-14T07:00:19.382Z,100614.69
2022-11-14T07:03:07.749Z,100608.27
2022-11-14T07:05:57.818Z,100619.13
2022-11-14T07:08:46.655Z,100613.37
2022-11-14T07:11:36.082Z,100633.67
2022-11-14T07:14:25.295Z,100626.88
2022-11-14T07:17:14.966Z,100629.44
2022-11-14T07:20:03.715Z,100622.27
2022-11-14T07:22:56.190Z,100642.52
2022-11-14T07:25:44.836Z,100633.02
2022-11-14T07:28:33.912Z,100631.17
2022-11-14T07:31:23.672Z,100639.14
2022-11-14T07:34:12.734Z,100666.42
2022-11-14T07:37:01.688Z,100655.41
2022-11-14T07:39:50.678Z,100646.10
2022-11-14T07:42:39.452Z,100673.60
2022-11-14T07:45:29.087Z,100660.11
2022-11-14T07:48:18.228Z,100674.63
2022-11-14T07:51:08.193Z,100664.98
2022-11-14T07:53:57.014Z,100659.70
2022-11-14T07:56:45.897Z,100667.80
2022-11-14T07:59:34.569Z,100674.78
2022-11-14T08:02:23.252Z,100667.23
2022-11-14T08:05:12.138Z,100670.19
2022-11-14T08:08:01.049Z,100676.48
2022-11-14T08:10:49.486Z,100671.81
2022-11-14T08:13:38.335Z,100666.31
2022-11-14T08:16:27.101Z,100677.95
2022-11-14T08:19:16.896Z,100675.66
2022-11-14T08:22:05.569Z,100685.41
2022-11-14T08:24:54.324Z,100684.85
2022-11-14T08:27:43.097Z,100669.48
2022-11-14T08:30:32.494Z,100683.48
2022-11-14T08:33:21.168Z,100689.48
2022-11-14T08:36:11.643Z,100682.60
2022-11-14T08:39:01.991Z,100692.06
2022-11-14T08:41:50.628Z,100688.48
2022-11-14T08:44:39.037Z,100683.97
2022-11-14T08:47:27.975Z,100683.91
2022-11-14T08:50:17.050Z,100699.50
2022-11-14T08:53:05.241Z,100681.37
2022-11-14T08:55:53.995Z,100677.18
2022-11-14T08:58:42.537Z,100676.42
2022-11-14T09:01:32.879Z,100677.32
2022-11-14T09:04:22.047Z,100682.39
2022-11-14T09:07:10.528Z,100674.60
2022-11-14T09:09:59.372Z,100703.14
2022-11-14T09:12:48.324Z,100684.98
2022-11-14T09:15:37.039Z,100698.87
2022-11-14T09:18:25.777Z,100696.34
2022-11-14T09:21:14.456Z,100690.28
2022-11-14T09:24:03.439Z,100689.38
2022-11-14T09:26:56.658Z,100692.01
2022-11-14T09:29:43.374Z,100690.36
2022-11-14T09:32:33.023Z,100688.56
2022-11-14T09:35:21.541Z,100703.23
2022-11-14T09:38:11.865Z,100686.77
2022-11-14T09:41:05.311Z,100676.41
2022-11-14T09:44:02.265Z,100686.78
2022-11-14T09:46:53.110Z,100681.70
2022-11-14T09:49:45.770Z,100692.09
2022-11-14T09:52:38.606Z,100688.58
2022-11-14T09:55:33.594Z,100678.30
2022-11-14T09:58:22.294Z,100681.72
2022-11-14T10:01:12.832Z,100680.81
2022-11-14T10:04:07.022Z,100679.00
2022-11-14T10:07:09.825Z,100674.69
2022-11-14T10:10:03.782Z,100676.38
2022-11-14T10:13:08.919Z,100674.60
2022-11-14T10:15:59.324Z,100676.30
2022-11-14T10:18:58.107Z,100667.63
2022-11-14T10:21:54.469Z,100671.87
2022-11-14T10:24:56.719Z,100671.86
2022-11-14T10:27:50.126Z,100673.67
2022-11-14T10:30:38.513Z,100666.80
2022-11-14T10:33:34.464Z,100667.70
2022-11-14T10:36:39.755Z,100668.53
2022-11-14T10:39:39.889Z,100666.80
2022-11-14T10:42:33.037Z,100664.21
2022-11-14T10:45:29.273Z,100659.03
2022-11-14T10:48:19.004Z,100662.48
2022-11-14T10:51:25.915Z,100654.72
2022-11-14T10:54:16.189Z,100652.94
2022-11-14T10:57:06.705Z,100652.13
2022-11-14T10:59:55.899Z,100662.48
2022-11-14T11:02:46.146Z,100656.34
2022-11-14T11:05:36.102Z,100675.25
2022-11-14T11:08:44.317Z,100657.98
2022-11-14T11:11:33.535Z,100664.05
2022-11-14T11:14:22.555Z,100657.22
2022-11-14T11:17:21.993Z,100669.27
2022-11-14T11:20:24.133Z,100659.84
2022-11-14T11:23:14.295Z,100655.62
2022-11-14T11:26:08.087Z,100657.45
2022-11-14T11:29:04.174Z,100657.47
2022-11-14T11:31:54.542Z,100651.45
2022-11-14T11:34:43.082Z,100652.41
2022-11-14T11:37:47.283Z,100650.66
2022-11-14T11:40:35.865Z,100661.06
2022-11-14T11:43:39.686Z,100654.15
2022-11-14T11:46:43.316Z,100666.23
2022-11-14T11:49:33.628Z,100660.16
2022-11-14T11:52:26.446Z,100656.67
2022-11-14T11:55:16.469Z,100660.05
2022-11-14T11:58:16.021Z,100664.37
2022-11-14T12:01:04.661Z,100660.05
2022-11-14T12:03:53.986Z,100657.52
2022-11-14T12:06:44.481Z,100655.83
2022-11-14T12:10:03.663Z,100666.22
2022-11-14T12:12:26.901Z,100661.92
2022-11-14T12:15:19.761Z,100661.14
2022-11-14T12:18:26.291Z,100663.64
2022-11-14T12:21:16.781Z,100665.36
2022-11-14T12:24:09.937Z,100663.66
2022-11-14T12:27:18.288Z,100673.14
2022-11-14T12:30:11.311Z,100661.06
2022-11-14T12:33:04.161Z,100663.65
2022-11-14T12:36:00.696Z,100663.66
2022-11-14T12:38:50.904Z,100659.47
2022-11-14T12:41:41.303Z,100662.92
2022-11-14T12:44:31.651Z,100661.16
2022-11-14T12:47:21.964Z,100661.25
2022-11-14T12:50:17.925Z,100659.54
2022-11-14T12:53:07.625Z,100668.25
2022-11-14T12:55:58.135Z,100666.52
2022-11-14T12:58:48.571Z,100663.94
2022-11-14T13:01:38.931Z,100663.07
2022-11-14T13:04:38.605Z,100666.55
2022-11-14T13:07:33.898Z,100670.08
2022-11-14T13:10:35.621Z,100667.58
2022-11-14T13:13:42.368Z,100668.48
2022-11-14T13:16:50.451Z,100671.00
2022-11-14T13:19:58.422Z,100661.45
2022-11-14T13:22:47.697Z,100663.23
2022-11-14T13:25:36.443Z,100680.48
2022-11-14T13:28:35.942Z,100666.69
2022-11-14T13:31:26.258Z,100668.42
2022-11-14T13:34:22.906Z,100667.67
2022-11-14T13:37:16.122Z,100662.43
2022-11-14T13:40:22.639Z,100662.42
2022-11-14T13:43:12.924Z,100659.89
2022-11-14T13:46:09.315Z,100661.63
2022-11-14T13:48:59.572Z,100661.67
2022-11-14T13:51:49.004Z,100657.37
2022-11-14T13:54:37.784Z,100666.92
2022-11-14T13:57:27.864Z,100670.41
2022-11-14T14:00:21.293Z,100666.98
2022-11-14T14:03:12.548Z,100667.91
2022-11-14T14:06:06.193Z,100673.98
2022-11-14T14:09:05.141Z,100666.26
2022-11-14T14:12:12.227Z,100667.98
2022-11-14T14:15:05.988Z,100676.61
2022-11-14T14:17:56.063Z,100674.07
2022-11-14T14:20:58.731Z,100668.02
2022-11-14T14:23:49.125Z,100673.23
2022-11-14T14:26:41.931Z,100670.64
2022-11-14T14:29:32.557Z,100666.34
2022-11-14T14:32:21.425Z,100664.63
2022-11-14T14:35:23.140Z,100667.22
2022-11-14T14:38:16.551Z,100668.94
2022-11-14T14:41:04.834Z,100678.41
2022-11-14T14:43:54.720Z,100665.47
2022-11-14T14:46:44.063Z,100664.59
2022-11-14T14:49:34.474Z,100656.78
2022-11-14T14:52:24.461Z,100665.34
2022-11-14T14:55:26.993Z,100668.75
2022-11-14T14:58:26.605Z,100660.93
2022-11-14T15:01:27.186Z,100661.73
2022-11-14T15:04:17.349Z,100659.07
2022-11-14T15:07:06.163Z,100653.02
2022-11-14T15:09:59.424Z,100650.41
2022-11-14T15:12:48.669Z,100652.06
2022-11-14T15:15:39.039Z,100643.40
2022-11-14T15:18:29.507Z,100647.76
2022-11-14T15:21:28.644Z,100650.35
2022-11-14T15:24:22.109Z,100649.44
2022-11-14T15:27:21.076Z,100653.73
2022-11-14T15:30:11.354Z,100652.86
2022-11-14T15:33:01.217Z,100652.78
2022-11-14T15:35:51.350Z,100647.67
2022-11-14T15:38:44.627Z,100646.79
2022-11-14T15:41:31.471Z,100646.77
2022-11-14T15:44:33.575Z,100647.58
2022-11-14T15:47:26.302Z,100645.81
2022-11-14T15:50:17.153Z,100646.69
2022-11-14T15:53:08.000Z,100640.69
2022-11-14T15:55:58.933Z,100634.59
2022-11-14T15:58:49.431Z,100638.99
2022-11-14T16:01:38.507Z,100647.57
2022-11-14T16:04:29.199Z,100639.81
2022-11-14T16:07:18.206Z,100638.98
2022-11-14T16:10:08.814Z,100633.73
2022-11-14T16:12:57.356Z,100645.88
2022-11-14T16:15:46.270Z,100645.86
2022-11-14T16:18:35.275Z,100643.20
2022-11-14T16:21:24.431Z,100639.79
2022-11-14T16:24:17.447Z,100643.27
2022-11-14T16:27:06.267Z,100638.02
2022-11-14T16:29:55.394Z,100641.42
2022-11-14T16:32:46.777Z,100632.81
2022-11-14T16:35:35.589Z,100625.91
2022-11-14T16:38:24.039Z,100628.42
2022-11-14T16:41:14.477Z,100624.94
2022-11-14T16:44:03.053Z,100630.94
2022-11-14T16:46:51.524Z,100632.64
2022-11-14T16:49:40.679Z,100634.41
2022-11-14T16:52:29.525Z,100631.80
2022-11-14T16:55:18.599Z,100626.66
2022-11-14T16:58:07.191Z,100627.54
2022-11-14T17:00:56.172Z,100633.54
2022-11-14T17:03:45.092Z,100621.48
2022-11-14T17:06:33.894Z,100619.78
2022-11-14T17:09:22.344Z,100619.80
2022-11-14T17:12:10.902Z,100618.00
2022-11-14T17:14:59.941Z,100618.09
2022-11-14T17:17:50.352Z,100610.31
2022-11-14T17:20:39.499Z,100610.36
2022-11-14T17:23:28.206Z,100612.88
2022-11-14T17:26:16.887Z,100611.09
2022-11-14T17:29:06.136Z,100602.51
2022-11-14T17:31:54.929Z,100602.48
2022-11-14T17:34:44.670Z,100595.54
2022-11-14T17:37:33.519Z,100598.94
2022-11-14T17:40:21.966Z,100604.98
2022-11-14T17:43:10.529Z,100592.03
2022-11-14T17:45:59.006Z,100596.39
2022-11-14T17:48:47.950Z,100599.80
2022-11-14T17:51:37.183Z,100598.92
2022-11-14T17:54:25.645Z,100598.94
2022-11-14T17:57:14.145Z,100608.29
2022-11-14T18:00:04.052Z,100605.78
2022-11-14T18:02:52.983Z,100597.20
2022-11-14T18:05:41.268Z,100599.84
2022-11-14T18:08:30.328Z,100603.32
2022-11-14T18:11:20.066Z,100603.28
2022-11-14T18:14:08.824Z,100596.39
2022-11-14T18:17:12.355Z,100610.16
2022-11-14T18:19:47.819Z,100597.09
2022-11-14T18:22:36.456Z,100606.59
2022-11-14T18:25:24.982Z,100598.02
2022-11-14T18:28:13.737Z,100601.47
2022-11-14T18:31:03.583Z,100596.33
2022-11-14T18:33:52.005Z,100602.41
2022-11-14T18:36:40.744Z,100603.32
2022-11-14T18:39:31.018Z,100609.20
2022-11-14T18:42:19.674Z,100589.41
2022-11-14T18:45:08.258Z,100595.54
2022-11-14T18:47:56.968Z,100607.63
2022-11-14T18:50:45.593Z,100597.33
2022-11-14T18:53:35.178Z,100594.80
2022-11-14T18:56:25.550Z,100596.56
2022-11-14T18:59:13.978Z,100585.35
2022-11-14T19:02:02.598Z,100588.75
2022-11-14T19:04:51.539Z,100591.33
2022-11-14T19:07:39.951Z,100584.38
2022-11-14T19:10:28.728Z,100588.63
2022-11-14T19:13:17.279Z,100584.33
2022-11-14T19:16:06.637Z,100581.69
2022-11-14T19:18:55.670Z,100591.23
2022-11-14T19:21:44.489Z,100580.09
2022-11-14T19:24:33.629Z,100587.05
2022-11-14T19:27:22.612Z,100581.95
2022-11-14T19:30:11.421Z,100585.39
2022-11-14T19:33:00.083Z,100577.67
2022-11-14T19:35:49.030Z,100567.30
2022-11-14T19:38:37.733Z,100558.66
2022-11-14T19:41:27.199Z,100558.64
2022-11-14T19:44:15.768Z,100555.16
2022-11-14T19:47:04.665Z,100552.56
2022-11-14T19:49:53.435Z,100553.45
2022-11-14T19:52:42.311Z,100559.48
2022-11-14T19:55:32.207Z,100562.94
2022-11-14T19:58:20.782Z,100562.91
2022-11-14T20:01:10.965Z,100560.31
2022-11-14T20:04:01.174Z,100559.45
2022-11-14T20:06:50.452Z,100563.72
2022-11-14T20:09:39.649Z,100557.73
2022-11-14T20:12:28.483Z,100561.23
2022-11-14T20:15:17.549Z,100569.78
2022-11-14T20:18:06.481Z,100557.67
2022-11-14T20:20:56.797Z,100570.75
2022-11-14T20:23:46.069Z,100562.16
2022-11-14T20:26:35.128Z,100554.45
2022-11-14T20:29:24.025Z,100559.65
2022-11-14T20:32:15.773Z,100551.00
2022-11-14T20:35:03.202Z,100562.22
2022-11-14T20:37:52.206Z,100555.34
2022-11-14T20:40:40.997Z,100556.16
2022-11-14T20:43:30.740Z,100553.58
2022-11-14T20:46:22.410Z,100546.69
2022-11-14T20:49:11.306Z,100544.11
2022-11-14T20:52:01.950Z,100547.59
2022-11-14T20:54:50.558Z,100544.11
2022-11-14T20:57:39.271Z,100544.09
2022-11-14T21:00:27.680Z,100542.31
2022-11-14T21:03:16.273Z,100537.12
2022-11-14T21:06:07.089Z,100537.99
2022-11-14T21:08:55.722Z,100538.01
2022-11-14T21:11:44.402Z,100543.20
2022-11-14T21:14:33.025Z,100544.09
2022-11-14T21:17:21.630Z,100538.01
2022-11-14T21:20:10.515Z,100557.85
2022-11-14T21:22:59.193Z,100541.50
2022-11-14T21:25:47.945Z,100543.23
2022-11-14T21:28:38.306Z,100543.30
2022-11-14T21:31:30.502Z,100532.94
2022-11-14T21:34:19.277Z,100539.00
2022-11-14T21:37:08.046Z,100533.83
2022-11-14T21:39:56.537Z,100541.59
2022-11-14T21:42:45.534Z,100538.11
2022-11-14T21:45:34.259Z,100532.94
2022-11-14T21:48:23.829Z,100532.91
2022-11-14T21:51:13.710Z,100525.97
2022-11-14T21:54:06.573Z,100522.57
2022-11-14T21:56:55.319Z,100517.39
2022-11-14T21:59:43.927Z,100524.28
2022-11-14T22:02:50.956Z,100515.61
2022-11-14T22:05:39.522Z,100506.13
2022-11-14T22:08:28.083Z,100519.91
2022-11-14T22:11:16.661Z,100508.58
2022-11-14T22:14:05.077Z,100516.36
2022-11-14T22:16:53.921Z,100517.30
2022-11-14T22:19:42.677Z,100507.85
2022-11-14T22:22:33.066Z,100501.03
2022-11-14T22:25:21.559Z,100498.48
2022-11-14T22:28:10.129Z,100495.95
2022-11-14T22:31:03.224Z,100488.98
2022-11-14T22:33:52.429Z,100491.66
2022-11-14T22:36:41.075Z,100492.56
2022-11-14T22:39:29.801Z,100496.92
2022-11-14T22:42:18.287Z,100489.16
2022-11-14T22:45:07.689Z,100492.55
2022-11-14T22:47:59.631Z,100489.95
2022-11-14T22:50:48.290Z,100492.55
2022-11-14T22:53:37.712Z,100489.95
2022-11-14T22:56:35.581Z,100489.91
2022-11-14T22:59:25.347Z,100500.25
2022-11-14T23:02:13.810Z,100495.95
2022-11-14T23:05:02.410Z,100487.22
2022-11-14T23:07:51.239Z,100481.22
2022-11-14T23:10:40.359Z,100488.18
2022-11-14T23:13:29.015Z,100483.90
2022-11-14T23:16:19.215Z,100479.56
2022-11-14T23:19:07.742Z,100475.25
2022-11-14T23:21:55.990Z,100476.94
2022-11-14T23:24:44.463Z,100476.05
2022-11-14T23:27:33.647Z,100471.75
2022-11-14T23:30:22.332Z,100480.34
2022-11-14T23:33:10.781Z,100478.55
2022-11-14T23:35:59.835Z,100457.02
2022-11-14T23:38:48.778Z,100452.73
2022-11-14T23:41:37.522Z,100458.79
2022-11-14T23:44:26.680Z,100458.77
2022-11-14T23:47:15.090Z,100452.64
2022-11-14T23:50:03.770Z,100444.97
2022-11-14T23:52:52.474Z,100441.55
2022-11-14T23:55:42.233Z,100442.34
2022-11-14T23:58:30.902Z,100445.95
